Time;durP1;ratioP1;P1;durP2;ratioP2;P2;SDS_P1;SDS_P2;PMS_P1;PMS_P2;Temp;Humidity;BMP_temperature;BMP_pressure;BME280_temperature;BME280_humidity;BME280_pressure;Samples;Min_cycle;Max_cycle;Signal;HPM_P1;HPM_P2
2021/04/14 00:01:57;;;;;;;4.60;3.43;;;;;;;;;;4992162;28;37491;-77
2021/04/14 00:04:24;;;;;;;5.30;3.17;;;;;;;;;;4989637;28;38076;-77
2021/04/14 00:06:51;;;;;;;4.87;3.17;;;;;;;;;;4988923;28;37091;-77
2021/04/14 00:09:17;;;;;;;8.93;3.40;;;;;;;;;;4978899;28;38384;-77
2021/04/14 00:11:44;;;;;;;5.70;3.30;;;;;;;;;;5002824;28;38591;-80
2021/04/14 00:14:10;;;;;;;5.70;3.37;;;;;;;;;;4995797;28;38259;-77
2021/04/14 00:16:37;;;;;;;9.87;4.03;;;;;;;;;;4995453;28;35670;-77
2021/04/14 00:19:03;;;;;;;5.30;3.33;;;;;;;;;;4984350;28;37352;-77
2021/04/14 00:21:30;;;;;;;6.00;3.70;;;;;;;;;;5000547;28;37675;-77
2021/04/14 00:23:57;;;;;;;5.90;3.37;;;;;;;;;;4998640;28;37899;-77
2021/04/14 00:26:24;;;;;;;3.93;2.97;;;;;;;;;;4994256;28;36349;-77
2021/04/14 00:28:50;;;;;;;6.03;3.20;;;;;;;;;;4987032;28;40080;-77
2021/04/14 00:31:17;;;;;;;7.33;3.50;;;;;;;;;;4988415;28;38537;-77
2021/04/14 00:33:43;;;;;;;5.00;2.90;;;;;;;;;;5006592;28;36810;-77
2021/04/14 00:36:10;;;;;;;6.97;3.57;;;;;;;;;;4994869;28;36152;-77
2021/04/14 00:38:37;;;;;;;5.37;3.60;;;;;;;;;;4996201;28;38172;-77
2021/04/14 00:41:05;;;;;;;6.77;3.40;;;;;;;;;;5001095;28;37800;-77
2021/04/14 00:43:33;;;;;;;6.87;3.63;;;;;;;;;;4994744;28;38100;-77
2021/04/14 00:46:00;;;;;;;6.83;3.53;;;;;;;;;;4985732;28;36787;-77
2021/04/14 00:48:26;;;;;;;7.93;4.23;;;;;;;;;;4984854;28;40045;-77
2021/04/14 00:50:53;;;;;;;7.03;3.33;;;;;;;;;;4982843;28;38537;-77
2021/04/14 00:53:20;;;;;;;4.07;3.07;;;;;;;;;;4974551;28;38296;-77
2021/04/14 00:55:46;;;;;;;6.13;3.97;;;;;;;;;;5001747;28;35388;-77
2021/04/14 00:58:13;;;;;;;6.70;3.83;;;;;;;;;;4983584;28;38583;-77
2021/04/14 01:00:41;;;;;;;7.40;3.23;;;;;;;;;;5000013;28;37084;-79
2021/04/14 01:03:12;;;;;;;5.90;3.60;;;;;;;;;;4991106;28;41089;-77
2021/04/14 01:05:39;;;;;;;6.30;3.83;;;;;;;;;;4976622;28;36002;-76
2021/04/14 01:08:06;;;;;;;7.50;3.60;;;;;;;;;;4978450;28;37321;-77
2021/04/14 01:10:33;;;;;;;5.67;3.90;;;;;;;;;;4979174;28;39540;-79
2021/04/14 01:12:59;;;;;;;7.77;3.90;;;;;;;;;;4993006;28;38230;-78
2021/04/14 01:15:30;;;;;;;6.43;4.00;;;;;;;;;;4984696;28;37503;-75
2021/04/14 01:17:56;;;;;;;5.43;3.53;;;;;;;;;;4996154;28;36159;-77
2021/04/14 01:20:23;;;;;;;6.40;4.00;;;;;;;;;;4986005;28;37226;-77
2021/04/14 01:22:49;;;;;;;5.60;3.77;;;;;;;;;;4980756;28;37095;-77
2021/04/14 01:25:21;;;;;;;7.27;4.17;;;;;;;;;;4984504;28;35806;-77
2021/04/14 01:27:48;;;;;;;5.63;2.65;;;;;;;;;;4981926;28;38522;-77
2021/04/14 01:30:18;;;;;;;9.03;4.37;;;;;;;;;;4997750;28;37461;-77
2021/04/14 01:32:44;;;;;;;7.40;3.87;;;;;;;;;;4982705;28;38531;-78
2021/04/14 01:35:12;;;;;;;10.40;4.40;;;;;;;;;;4976373;28;35855;-78
2021/04/14 01:37:39;;;;;;;8.00;4.07;;;;;;;;;;4975791;28;39037;-77
2021/04/14 01:40:06;;;;;;;8.10;4.10;;;;;;;;;;4984059;28;37434;-77
2021/04/14 01:42:32;;;;;;;9.50;4.57;;;;;;;;;;4984204;28;39024;-76
2021/04/14 01:44:59;;;;;;;6.77;3.67;;;;;;;;;;4986328;28;36896;-79
2021/04/14 01:47:25;;;;;;;6.57;4.23;;;;;;;;;;4987500;28;38108;-77
2021/04/14 01:49:51;;;;;;;7.73;4.43;;;;;;;;;;4984788;28;37546;-77
2021/04/14 01:52:18;;;;;;;9.07;4.23;;;;;;;;;;4980170;28;38580;-77
2021/04/14 01:54:44;;;;;;;7.43;3.73;;;;;;;;;;4995566;28;35839;-77
2021/04/14 01:57:10;;;;;;;9.30;5.17;;;;;;;;;;4984105;28;38177;-77
2021/04/14 01:59:37;;;;;;;7.97;4.40;;;;;;;;;;5000726;28;37517;-76
2021/04/14 02:02:04;;;;;;;6.53;4.27;;;;;;;;;;4996105;28;37075;-77
2021/04/14 02:04:30;;;;;;;7.80;3.73;;;;;;;;;;4980476;28;35889;-79
2021/04/14 02:06:56;;;;;;;6.50;4.00;;;;;;;;;;4985179;28;37722;-77
2021/04/14 02:09:23;;;;;;;9.60;4.20;;;;;;;;;;4998045;28;37153;-77
2021/04/14 02:11:49;;;;;;;7.80;4.13;;;;;;;;;;4992663;28;39243;-77
2021/04/14 02:14:16;;;;;;;7.17;4.27;;;;;;;;;;4981644;28;37002;-77
2021/04/14 02:16:42;;;;;;;7.40;4.00;;;;;;;;;;5004148;28;37617;-80
2021/04/14 02:19:08;;;;;;;8.30;4.50;;;;;;;;;;4984492;28;39275;-77
2021/04/14 02:21:36;;;;;;;7.70;4.57;;;;;;;;;;4979121;28;38234;-80
2021/04/14 02:24:02;;;;;;;6.73;4.50;;;;;;;;;;4981043;28;36847;-79
2021/04/14 02:26:29;;;;;;;8.90;5.47;;;;;;;;;;4983473;28;40205;-80
2021/04/14 02:28:56;;;;;;;10.13;4.80;;;;;;;;;;4983706;28;38830;-79
2021/04/14 02:31:31;;;;;;;9.83;5.03;;;;;;;;;;4980363;28;39084;-79
2021/04/14 02:34:05;;;;;;;6.37;4.80;;;;;;;;;;4992559;28;37111;-80
2021/04/14 02:36:32;;;;;;;12.83;5.53;;;;;;;;;;4996931;28;47370;-80
2021/04/14 02:38:58;;;;;;;8.17;5.30;;;;;;;;;;4979910;28;38338;-79
2021/04/14 02:41:24;;;;;;;7.13;5.00;;;;;;;;;;4993977;28;39167;-79
2021/04/14 02:43:52;;;;;;;8.93;5.07;;;;;;;;;;4995274;28;36645;-79
2021/04/14 02:46:19;;;;;;;10.80;5.67;;;;;;;;;;5001687;28;39382;-79
2021/04/14 02:48:46;;;;;;;8.13;4.43;;;;;;;;;;4993886;28;37507;-79
2021/04/14 02:51:12;;;;;;;10.60;5.60;;;;;;;;;;5001145;28;38033;-79
2021/04/14 02:53:38;;;;;;;9.23;5.43;;;;;;;;;;4974034;28;36668;-79
2021/04/14 02:56:05;;;;;;;8.87;5.53;;;;;;;;;;4982046;28;38952;-79
2021/04/14 02:58:31;;;;;;;10.33;6.03;;;;;;;;;;4997945;28;38149;-80
2021/04/14 03:00:58;;;;;;;9.87;5.50;;;;;;;;;;4998954;28;37101;-80
2021/04/14 03:03:27;;;;;;;7.77;5.73;;;;;;;;;;5005068;28;36757;-79
2021/04/14 03:05:53;;;;;;;13.63;6.90;;;;;;;;;;4991974;28;38646;-79
2021/04/14 03:08:20;;;;;;;10.13;5.97;;;;;;;;;;4989168;28;36940;-79
2021/04/14 03:10:46;;;;;;;9.30;5.07;;;;;;;;;;4978585;28;38142;-79
2021/04/14 03:13:14;;;;;;;8.10;5.00;;;;;;;;;;4988522;28;36501;-79
2021/04/14 03:15:41;;;;;;;7.53;5.07;;;;;;;;;;4979296;28;39101;-80
2021/04/14 03:18:09;;;;;;;11.67;6.60;;;;;;;;;;4981421;28;41103;-80
2021/04/14 03:20:35;;;;;;;8.43;5.40;;;;;;;;;;4981855;28;39601;-79
2021/04/14 03:23:01;;;;;;;9.80;5.87;;;;;;;;;;4981519;28;37136;-79
2021/04/14 03:25:31;;;;;;;9.77;5.83;;;;;;;;;;4972395;28;46820;-80
2021/04/14 03:27:57;;;;;;;7.90;5.20;;;;;;;;;;4980828;28;38151;-79
2021/04/14 03:30:24;;;;;;;9.93;6.07;;;;;;;;;;4989530;28;38203;-80
2021/04/14 03:32:50;;;;;;;10.87;6.17;;;;;;;;;;4999399;28;36773;-79
2021/04/14 03:35:18;;;;;;;10.00;6.70;;;;;;;;;;4978532;28;39826;-79
2021/04/14 03:37:45;;;;;;;10.43;6.10;;;;;;;;;;4979300;28;38353;-79
2021/04/14 03:40:11;;;;;;;9.30;5.73;;;;;;;;;;4980815;28;38324;-79
2021/04/14 03:42:38;;;;;;;9.57;5.97;;;;;;;;;;4987709;28;36891;-79
2021/04/14 03:45:11;;;;;;;12.73;6.00;;;;;;;;;;5010436;28;35807;-80
2021/04/14 03:47:37;;;;;;;8.07;5.50;;;;;;;;;;4984227;28;39156;-79
2021/04/14 03:50:05;;;;;;;13.03;5.80;;;;;;;;;;4996664;28;38448;-77
2021/04/14 03:52:31;;;;;;;11.63;5.50;;;;;;;;;;4984439;28;36605;-77
2021/04/14 03:54:57;;;;;;;10.00;5.30;;;;;;;;;;4985691;28;39041;-77
2021/04/14 03:57:24;;;;;;;10.47;5.87;;;;;;;;;;4999838;28;38006;-77
2021/04/14 03:59:50;;;;;;;9.57;6.40;;;;;;;;;;4992515;28;38212;-80
2021/04/14 04:02:16;;;;;;;10.53;5.53;;;;;;;;;;4998432;28;36848;-77
2021/04/14 04:04:43;;;;;;;9.97;6.10;;;;;;;;;;4989430;28;37755;-77
2021/04/14 04:07:09;;;;;;;10.53;6.27;;;;;;;;;;5001127;28;37386;-77
2021/04/14 04:09:35;;;;;;;9.33;5.50;;;;;;;;;;4993601;28;37193;-77
2021/04/14 04:12:05;;;;;;;9.13;6.50;;;;;;;;;;4985389;28;36828;-77
2021/04/14 04:14:34;;;;;;;10.23;6.57;;;;;;;;;;5000482;28;38976;-77
2021/04/14 04:17:00;;;;;;;12.40;6.83;;;;;;;;;;4979710;28;37691;-77
2021/04/14 04:19:26;;;;;;;11.13;6.07;;;;;;;;;;4987649;28;47365;-78
2021/04/14 04:21:53;;;;;;;13.33;7.30;;;;;;;;;;4991817;28;36227;-77
2021/04/14 04:24:19;;;;;;;10.47;6.20;;;;;;;;;;5001320;28;38107;-77
2021/04/14 04:26:45;;;;;;;10.63;6.37;;;;;;;;;;4996497;28;37447;-77
2021/04/14 04:29:12;;;;;;;12.40;5.97;;;;;;;;;;4982389;28;37154;-78
2021/04/14 04:31:38;;;;;;;8.00;5.33;;;;;;;;;;4988895;28;37682;-77
2021/04/14 04:34:05;;;;;;;10.30;6.40;;;;;;;;;;4989265;28;39636;-77
2021/04/14 04:36:31;;;;;;;8.53;6.23;;;;;;;;;;4989276;28;37105;-77
2021/04/14 04:38:57;;;;;;;11.00;7.00;;;;;;;;;;4984752;28;39104;-77
2021/04/14 04:41:24;;;;;;;12.00;7.00;;;;;;;;;;4975770;28;35767;-77
2021/04/14 04:43:50;;;;;;;12.00;7.70;;;;;;;;;;4990105;28;37716;-77
2021/04/14 04:46:16;;;;;;;13.47;7.30;;;;;;;;;;4976525;28;38857;-77
2021/04/14 04:48:43;;;;;;;11.20;6.87;;;;;;;;;;4982307;28;38958;-77
2021/04/14 04:51:09;;;;;;;12.57;6.50;;;;;;;;;;4976532;28;35858;-77
2021/04/14 04:53:35;;;;;;;10.97;6.93;;;;;;;;;;4980530;28;38955;-77
2021/04/14 04:56:02;;;;;;;13.17;7.73;;;;;;;;;;4974710;28;37319;-78
2021/04/14 04:58:28;;;;;;;12.60;8.27;;;;;;;;;;4977965;28;47499;-78
2021/04/14 05:00:55;;;;;;;12.10;6.83;;;;;;;;;;4986702;28;38247;-78
2021/04/14 05:03:23;;;;;;;12.47;8.03;;;;;;;;;;4996051;28;37929;-79
2021/04/14 05:05:49;;;;;;;10.03;7.37;;;;;;;;;;4998987;28;38290;-78
2021/04/14 05:08:16;;;;;;;14.30;9.10;;;;;;;;;;4984955;28;39278;-79
2021/04/14 05:10:45;;;;;;;16.80;8.10;;;;;;;;;;4996704;28;37037;-79
2021/04/14 05:13:11;;;;;;;13.40;8.17;;;;;;;;;;4979810;28;39037;-79
2021/04/14 05:15:39;;;;;;;14.13;9.43;;;;;;;;;;5007558;28;37248;-79
2021/04/14 05:18:05;;;;;;;13.83;7.40;;;;;;;;;;4981610;28;37251;-77
2021/04/14 05:20:32;;;;;;;14.67;8.37;;;;;;;;;;4977894;28;36788;-77
2021/04/14 05:22:59;;;;;;;13.17;8.50;;;;;;;;;;4993041;28;37803;-77
2021/04/14 05:25:26;;;;;;;15.17;8.83;;;;;;;;;;4989841;28;39397;-78
2021/04/14 05:27:56;;;;;;;14.03;8.00;;;;;;;;;;5001603;28;37472;-78
2021/04/14 05:30:22;;;;;;;13.27;8.23;;;;;;;;;;4979564;28;37144;-80
2021/04/14 05:32:49;;;;;;;16.93;9.87;;;;;;;;;;4994659;28;38439;-80
2021/04/14 05:35:17;;;;;;;11.93;7.50;;;;;;;;;;5002917;28;37321;-79
2021/04/14 05:37:43;;;;;;;13.93;9.03;;;;;;;;;;4994948;28;37153;-78
2021/04/14 05:40:10;;;;;;;14.67;10.20;;;;;;;;;;4993173;28;35346;-77
2021/04/14 05:42:40;;;;;;;15.00;9.83;;;;;;;;;;4995387;28;39855;-77
2021/04/14 05:45:09;;;;;;;15.77;10.27;;;;;;;;;;4982534;28;38861;-77
2021/04/14 05:47:35;;;;;;;12.93;8.33;;;;;;;;;;4998853;28;37351;-77
2021/04/14 05:50:02;;;;;;;15.70;10.40;;;;;;;;;;4978079;28;37328;-76
2021/04/14 05:52:28;;;;;;;13.33;9.87;;;;;;;;;;4998932;28;47090;-76
2021/04/14 05:54:55;;;;;;;15.17;9.23;;;;;;;;;;4988597;28;38676;-76
2021/04/14 05:57:21;;;;;;;19.23;11.77;;;;;;;;;;4999747;28;37318;-75
2021/04/14 05:59:48;;;;;;;17.20;10.40;;;;;;;;;;4974358;28;36334;-75
2021/04/14 06:02:14;;;;;;;15.07;10.47;;;;;;;;;;4988396;28;39456;-75
2021/04/14 06:04:41;;;;;;;17.50;10.50;;;;;;;;;;4986772;28;37395;-74
2021/04/14 06:07:07;;;;;;;18.07;11.30;;;;;;;;;;4982083;28;39039;-75
2021/04/14 06:09:34;;;;;;;15.03;10.17;;;;;;;;;;4985214;28;37318;-73
2021/04/14 06:12:00;;;;;;;18.47;12.13;;;;;;;;;;4965331;28;37709;-75
2021/04/14 06:14:26;;;;;;;15.93;10.90;;;;;;;;;;4990816;28;46237;-76
2021/04/14 06:16:53;;;;;;;22.87;10.47;;;;;;;;;;4995876;28;38915;-75
2021/04/14 06:19:19;;;;;;;14.47;9.50;;;;;;;;;;5000790;28;37539;-74
2021/04/14 06:21:46;;;;;;;16.13;9.00;;;;;;;;;;4998286;28;37645;-75
2021/04/14 06:24:13;;;;;;;14.37;9.00;;;;;;;;;;4988163;28;38590;-74
2021/04/14 06:26:49;;;;;;;13.37;8.87;;;;;;;;;;4950616;28;38977;-75
2021/04/14 06:29:16;;;;;;;15.20;10.07;;;;;;;;;;4978350;28;37654;-75
2021/04/14 06:31:42;;;;;;;18.53;9.73;;;;;;;;;;4997821;28;39118;-76
2021/04/14 06:34:19;;;;;;;17.87;8.67;;;;;;;;;;4998890;28;37391;-76
2021/04/14 06:36:46;;;;;;;13.93;7.47;;;;;;;;;;4998750;28;37271;-75
2021/04/14 06:39:14;;;;;;;12.00;7.23;;;;;;;;;;4993307;28;35735;-75
2021/04/14 06:44:49;;;;;;;12.67;6.53;;;;;;;;;;4978467;28;49786;-76
2021/04/14 06:47:30;;;;;;;10.10;5.90;;;;;;;;;;4993149;28;37335;-76
2021/04/14 06:50:01;;;;;;;11.70;7.17;;;;;;;;;;4986972;28;36140;-75
2021/04/14 06:52:30;;;;;;;15.63;7.33;;;;;;;;;;4973066;28;41767;-75
2021/04/14 06:55:00;;;;;;;14.70;6.90;;;;;;;;;;4982089;28;39121;-75
2021/04/14 06:57:28;;;;;;;12.97;7.17;;;;;;;;;;4982226;28;36707;-75
2021/04/14 07:00:03;;;;;;;14.73;8.07;;;;;;;;;;4980144;28;35707;-75
2021/04/14 07:02:33;;;;;;;13.30;7.73;;;;;;;;;;4977480;28;47117;-75
2021/04/14 07:05:03;;;;;;;14.53;8.40;;;;;;;;;;4987069;28;37295;-75
2021/04/14 07:07:31;;;;;;;14.33;8.70;;;;;;;;;;4990080;28;47319;-76
2021/04/14 07:10:05;;;;;;;13.77;7.60;;;;;;;;;;4995875;28;37199;-75
2021/04/14 07:12:31;;;;;;;13.27;8.73;;;;;;;;;;4981714;28;47398;-76
2021/04/14 07:14:59;;;;;;;15.47;8.37;;;;;;;;;;4983887;28;38644;-75
2021/04/14 07:17:28;;;;;;;15.60;8.37;;;;;;;;;;4981411;28;38128;-75
2021/04/14 07:20:10;;;;;;;14.20;8.20;;;;;;;;;;4993473;28;35706;-74
2021/04/14 07:22:46;;;;;;;14.57;9.10;;;;;;;;;;4980465;28;47150;-75
2021/04/14 07:25:19;;;;;;;11.70;8.17;;;;;;;;;;4975690;28;37831;-75
2021/04/14 07:27:54;;;;;;;20.27;8.60;;;;;;;;;;4973119;28;37731;-75
2021/04/14 07:30:24;;;;;;;14.00;7.90;;;;;;;;;;4983904;28;34713;-75
2021/04/14 07:32:58;;;;;;;14.40;8.50;;;;;;;;;;4978704;28;38753;-75
2021/04/14 07:35:27;;;;;;;13.47;8.30;;;;;;;;;;4977288;28;38402;-79
2021/04/14 07:38:00;;;;;;;12.77;7.80;;;;;;;;;;4980296;28;37786;-79
2021/04/14 07:40:30;;;;;;;11.70;7.17;;;;;;;;;;4982191;28;37590;-78
2021/04/14 07:42:56;;;;;;;12.87;8.37;;;;;;;;;;4995428;28;38950;-79
2021/04/14 07:45:25;;;;;;;10.90;7.13;;;;;;;;;;4996336;28;39221;-79
2021/04/14 07:48:10;;;;;;;12.70;8.23;;;;;;;;;;4994052;28;37718;-79
2021/04/14 07:50:36;;;;;;;12.00;7.87;;;;;;;;;;4979164;28;48470;-79
2021/04/14 07:53:03;;;;;;;12.87;8.20;;;;;;;;;;4982162;28;36527;-80
2021/04/14 07:55:33;;;;;;;12.70;7.87;;;;;;;;;;4980988;28;38606;-78
2021/04/14 07:58:08;;;;;;;13.73;7.97;;;;;;;;;;4979482;28;37799;-78
2021/04/14 08:00:40;;;;;;;15.47;8.53;;;;;;;;;;4983465;28;48581;-78
2021/04/14 08:03:12;;;;;;;11.83;7.57;;;;;;;;;;4984240;28;39151;-77
2021/04/14 08:05:38;;;;;;;12.80;8.10;;;;;;;;;;4978223;28;39034;-78
2021/04/14 08:08:24;;;;;;;12.60;8.00;;;;;;;;;;4980109;28;36848;-80
2021/04/14 08:10:54;;;;;;;10.77;7.90;;;;;;;;;;4978815;28;37230;-78
2021/04/14 08:13:26;;;;;;;13.57;8.13;;;;;;;;;;4980761;28;37188;-80
2021/04/14 08:15:53;;;;;;;13.17;8.23;;;;;;;;;;4985873;28;39385;-78
2021/04/14 08:18:27;;;;;;;12.43;9.27;;;;;;;;;;5000670;28;38086;-77
2021/04/14 08:21:07;;;;;;;15.90;9.40;;;;;;;;;;4990421;28;37250;-77
2021/04/14 08:23:34;;;;;;;13.67;10.17;;;;;;;;;;4995041;28;47230;-79
2021/04/14 08:26:01;;;;;;;14.80;10.33;;;;;;;;;;4998450;28;37954;-77
2021/04/14 08:28:29;;;;;;;14.03;10.30;;;;;;;;;;4981737;28;37819;-78
2021/04/14 08:31:08;;;;;;;17.10;9.33;;;;;;;;;;4982853;28;38378;-77
2021/04/14 08:33:35;;;;;;;13.50;9.37;;;;;;;;;;4983477;28;49092;-77
2021/04/14 08:36:11;;;;;;;12.93;9.10;;;;;;;;;;5001911;28;39392;-78
2021/04/14 08:38:38;;;;;;;13.63;10.17;;;;;;;;;;4966272;28;49235;-75
2021/04/14 08:41:05;;;;;;;17.90;11.13;;;;;;;;;;4986091;28;38093;-75
2021/04/14 08:43:36;;;;;;;12.53;9.43;;;;;;;;;;4986980;28;39428;-75
2021/04/14 08:46:23;;;;;;;14.13;10.23;;;;;;;;;;4983982;28;37497;-75
2021/04/14 08:48:52;;;;;;;14.87;9.93;;;;;;;;;;4982213;28;38452;-75
2021/04/14 08:51:19;;;;;;;13.83;10.77;;;;;;;;;;4987166;28;38233;-79
2021/04/14 08:53:47;;;;;;;14.67;10.80;;;;;;;;;;4988832;28;39191;-78
2021/04/14 08:56:13;;;;;;;16.13;10.30;;;;;;;;;;4988254;28;38072;-77
2021/04/14 08:58:40;;;;;;;17.00;11.40;;;;;;;;;;4975710;28;38283;-77
2021/04/14 09:01:10;;;;;;;17.93;10.90;;;;;;;;;;4985621;28;36658;-79
2021/04/14 09:03:40;;;;;;;17.23;10.70;;;;;;;;;;4978564;28;39128;-78
2021/04/14 09:06:07;;;;;;;16.93;11.63;;;;;;;;;;4985513;28;39742;-79
2021/04/14 09:08:34;;;;;;;21.20;11.83;;;;;;;;;;4990554;28;39564;-79
2021/04/14 09:11:02;;;;;;;17.47;11.80;;;;;;;;;;4990948;28;35670;-76
2021/04/14 09:13:30;;;;;;;18.17;12.17;;;;;;;;;;5002689;28;47138;-76
2021/04/14 09:16:01;;;;;;;19.48;13.40;;;;;;;;;;4986579;28;39198;-76
2021/04/14 09:18:32;;;;;;;20.33;13.55;;;;;;;;;;4989720;28;39456;-76
2021/04/14 09:21:06;;;;;;;17.83;12.93;;;;;;;;;;5004371;28;36401;-76
2021/04/14 09:23:35;;;;;;;16.35;12.63;;;;;;;;;;5002134;28;46874;-76
2021/04/14 09:26:02;;;;;;;16.10;11.20;;;;;;;;;;4995606;28;37545;-76
2021/04/14 09:28:30;;;;;;;13.40;10.45;;;;;;;;;;4985266;28;47447;-77
2021/04/14 09:30:58;;;;;;;15.05;10.90;;;;;;;;;;4984963;28;36456;-76
2021/04/14 09:33:56;;;;;;;17.27;12.35;;;;;;;;;;4988810;28;39149;-75
2021/04/14 09:36:43;;;;;;;14.20;10.05;;;;;;;;;;4968687;28;38263;-75
2021/04/14 09:39:11;;;;;;;16.77;11.90;;;;;;;;;;4986896;28;37229;-75
2021/04/14 09:41:37;;;;;;;14.93;10.77;;;;;;;;;;4982696;28;36052;-75
2021/04/14 09:44:15;;;;;;;15.80;11.75;;;;;;;;;;4983603;28;39739;-75
2021/04/14 09:46:53;;;;;;;15.23;10.80;;;;;;;;;;4976425;28;38296;-75
2021/04/14 09:49:33;;;;;;;17.02;11.77;;;;;;;;;;4983684;28;39114;-75
2021/04/14 09:52:01;;;;;;;13.35;10.30;;;;;;;;;;4983944;28;37098;-75
2021/04/14 09:54:30;;;;;;;14.48;9.32;;;;;;;;;;4969913;28;48457;-75
2021/04/14 09:56:59;;;;;;;13.38;9.10;;;;;;;;;;4985096;28;39563;-75
2021/04/14 09:59:31;;;;;;;13.10;9.48;;;;;;;;;;4983031;28;39716;-76
2021/04/14 10:01:59;;;;;;;15.15;9.95;;;;;;;;;;4991973;28;36464;-75
2021/04/14 10:04:27;;;;;;;12.30;9.07;;;;;;;;;;4981663;28;39785;-75
2021/04/14 10:07:02;;;;;;;11.48;8.52;;;;;;;;;;4995341;28;37039;-75
2021/04/14 10:09:34;;;;;;;11.90;8.77;;;;;;;;;;4995603;28;47416;-76
2021/04/14 10:12:13;;;;;;;14.18;9.40;;;;;;;;;;4994711;28;36651;-76
2021/04/14 10:14:41;;;;;;;9.95;8.02;;;;;;;;;;4981790;28;47257;-78
2021/04/14 10:17:09;;;;;;;10.15;7.75;;;;;;;;;;4977277;28;38392;-77
2021/04/14 10:19:36;;;;;;;12.55;9.88;;;;;;;;;;4994641;28;36977;-76
2021/04/14 10:22:10;;;;;;;10.23;8.77;;;;;;;;;;5000953;28;38067;-76
2021/04/14 10:24:37;;;;;;;12.82;8.90;;;;;;;;;;5003889;28;39126;-76
2021/04/14 10:27:04;;;;;;;10.52;6.50;;;;;;;;;;4986080;28;39590;-76
2021/04/14 10:29:34;;;;;;;10.93;6.05;;;;;;;;;;4989566;28;37375;-75
2021/04/14 10:32:01;;;;;;;11.45;6.43;;;;;;;;;;4989715;28;34901;-76
2021/04/14 10:34:34;;;;;;;11.02;6.38;;;;;;;;;;4991982;28;49501;-77
2021/04/14 10:37:13;;;;;;;9.23;5.80;;;;;;;;;;4985744;28;37725;-76
2021/04/14 10:39:39;;;;;;;17.40;6.55;;;;;;;;;;5005701;28;47463;-79
2021/04/14 10:42:16;;;;;;;9.83;5.30;;;;;;;;;;5003689;28;35573;-77
2021/04/14 10:44:43;;;;;;;9.73;5.97;;;;;;;;;;5004762;28;38860;-77
2021/04/14 10:47:32;;;;;;;9.07;5.73;;;;;;;;;;4990033;28;39356;-77
2021/04/14 10:50:03;;;;;;;13.33;5.83;;;;;;;;;;4987326;28;38315;-76
2021/04/14 10:52:30;;;;;;;8.23;5.00;;;;;;;;;;4994880;28;46623;-76
2021/04/14 10:54:58;;;;;;;10.60;5.90;;;;;;;;;;4987200;28;39220;-77
2021/04/14 10:57:36;;;;;;;14.87;6.03;;;;;;;;;;4985092;28;38644;-78
2021/04/14 11:00:07;;;;;;;12.60;6.40;;;;;;;;;;4983936;28;38508;-76
2021/04/14 11:02:36;;;;;;;11.63;5.97;;;;;;;;;;4987787;28;37736;-76
2021/04/14 11:05:03;;;;;;;8.60;5.37;;;;;;;;;;4998715;28;37664;-76
2021/04/14 11:07:30;;;;;;;11.47;4.87;;;;;;;;;;4999228;28;38198;-79
2021/04/14 11:09:58;;;;;;;6.40;3.40;;;;;;;;;;5000501;28;37909;-77
2021/04/14 11:12:26;;;;;;;5.17;3.27;;;;;;;;;;4990064;28;36924;-79
2021/04/14 11:14:55;;;;;;;4.60;2.90;;;;;;;;;;4993920;28;39011;-76
2021/04/14 11:17:23;;;;;;;7.53;3.40;;;;;;;;;;5003397;28;37304;-78
2021/04/14 11:19:58;;;;;;;6.97;2.87;;;;;;;;;;4991360;28;38675;-75
2021/04/14 11:22:25;;;;;;;4.37;2.40;;;;;;;;;;4981938;28;37104;-75
2021/04/14 11:24:53;;;;;;;4.83;3.67;;;;;;;;;;4996521;28;39920;-76
2021/04/14 11:27:21;;;;;;;10.27;4.87;;;;;;;;;;4990491;28;37397;-76
2021/04/14 11:29:48;;;;;;;5.93;4.63;;;;;;;;;;4976455;28;37787;-76
2021/04/14 11:32:23;;;;;;;9.53;4.70;;;;;;;;;;4988509;28;37887;-76
2021/04/14 11:35:09;;;;;;;7.25;4.28;;;;;;;;;;4986163;28;39752;-76
2021/04/14 11:37:35;;;;;;;9.83;5.00;;;;;;;;;;4980967;28;47392;-77
2021/04/14 11:40:05;;;;;;;8.40;4.73;;;;;;;;;;4981173;28;37778;-76
2021/04/14 11:42:43;;;;;;;7.43;4.90;;;;;;;;;;4999942;28;36755;-76
2021/04/14 11:45:09;;;;;;;9.10;5.63;;;;;;;;;;5000621;28;37573;-76
2021/04/14 11:47:39;;;;;;;8.53;5.23;;;;;;;;;;4971595;28;39986;-76
2021/04/14 11:50:13;;;;;;;7.40;4.67;;;;;;;;;;4997874;28;37805;-76
2021/04/14 11:52:48;;;;;;;7.37;4.30;;;;;;;;;;4975165;28;35968;-76
2021/04/14 11:55:25;;;;;;;6.30;4.33;;;;;;;;;;4982634;28;40393;-76
2021/04/14 11:57:56;;;;;;;6.93;4.20;;;;;;;;;;4997740;28;37636;-76
2021/04/14 12:00:26;;;;;;;4.60;3.30;;;;;;;;;;4981157;28;37439;-77
2021/04/14 12:02:55;;;;;;;7.97;3.90;;;;;;;;;;5001176;28;36020;-76
2021/04/14 12:05:21;;;;;;;6.30;4.03;;;;;;;;;;4997629;28;39167;-76
2021/04/14 12:07:48;;;;;;;5.97;3.10;;;;;;;;;;4984193;28;37488;-77
2021/04/14 12:10:14;;;;;;;5.93;2.70;;;;;;;;;;4991305;28;38192;-77
2021/04/14 12:12:41;;;;;;;6.55;3.10;;;;;;;;;;4988282;28;37972;-77
2021/04/14 12:15:08;;;;;;;4.45;2.63;;;;;;;;;;4988223;28;40643;-76
2021/04/14 12:17:35;;;;;;;3.33;2.10;;;;;;;;;;5001471;28;38397;-77
2021/04/14 12:20:02;;;;;;;6.33;2.50;;;;;;;;;;4989102;28;36913;-75
2021/04/14 12:22:29;;;;;;;4.20;2.30;;;;;;;;;;5001218;28;47147;-76
2021/04/14 12:24:55;;;;;;;4.07;2.30;;;;;;;;;;5004961;28;37893;-76
2021/04/14 12:27:22;;;;;;;7.40;2.42;;;;;;;;;;4985522;28;38635;-76
2021/04/14 12:29:49;;;;;;;5.00;2.10;;;;;;;;;;5007460;28;37090;-76
2021/04/14 12:32:15;;;;;;;2.40;1.90;;;;;;;;;;4984390;28;37834;-77
2021/04/14 12:34:42;;;;;;;7.80;3.85;;;;;;;;;;4977457;28;20573;-77
2021/04/14 12:37:09;;;;;;;8.38;3.28;;;;;;;;;;4985072;28;37158;-77
2021/04/14 12:39:35;;;;;;;3.28;2.22;;;;;;;;;;4988993;28;36915;-77
2021/04/14 12:42:01;;;;;;;6.10;2.42;;;;;;;;;;5004334;28;37588;-76
2021/04/14 12:44:28;;;;;;;4.97;2.20;;;;;;;;;;4982174;28;48959;-77
2021/04/14 12:46:56;;;;;;;4.53;2.20;;;;;;;;;;4992122;28;38316;-76
2021/04/14 12:49:23;;;;;;;5.45;2.38;;;;;;;;;;5015158;28;38909;-76
2021/04/14 12:51:49;;;;;;;5.78;1.65;;;;;;;;;;5003281;28;36821;-76
2021/04/14 12:54:23;;;;;;;3.72;1.38;;;;;;;;;;4979001;28;38688;-76
2021/04/14 12:56:58;;;;;;;3.08;1.70;;;;;;;;;;4993175;28;38171;-76
2021/04/14 12:59:29;;;;;;;2.05;1.05;;;;;;;;;;4987694;28;37971;-76
2021/04/14 13:02:08;;;;;;;3.25;1.20;;;;;;;;;;4981625;28;37220;-76
2021/04/14 13:04:40;;;;;;;3.53;1.55;;;;;;;;;;4983287;28;48413;-77
2021/04/14 13:07:13;;;;;;;2.95;1.50;;;;;;;;;;4980481;28;39364;-77
2021/04/14 13:09:39;;;;;;;4.47;1.38;;;;;;;;;;4999266;28;36691;-76
2021/04/14 13:12:12;;;;;;;3.97;1.55;;;;;;;;;;4996834;28;35525;-77
2021/04/14 13:14:38;;;;;;;4.13;1.42;;;;;;;;;;4987220;28;37869;-77
2021/04/14 13:17:25;;;;;;;3.00;0.82;;;;;;;;;;5004173;28;37460;-77
2021/04/14 13:19:52;;;;;;;3.58;0.70;;;;;;;;;;4980051;28;38432;-76
2021/04/14 13:22:28;;;;;;;1.63;0.63;;;;;;;;;;4983616;28;37175;-76
2021/04/14 13:25:02;;;;;;;3.95;0.60;;;;;;;;;;4985793;28;38091;-76
2021/04/14 13:27:47;;;;;;;2.15;1.00;;;;;;;;;;4987127;28;48978;-76
2021/04/14 13:30:24;;;;;;;4.25;0.60;;;;;;;;;;4987112;28;38584;-76
2021/04/14 13:32:58;;;;;;;2.15;0.50;;;;;;;;;;4993505;28;36294;-76
2021/04/14 13:35:34;;;;;;;2.20;0.57;;;;;;;;;;4981023;28;40009;-76
2021/04/14 13:38:02;;;;;;;1.30;0.40;;;;;;;;;;4979179;28;39507;-76
2021/04/14 13:40:34;;;;;;;1.60;0.70;;;;;;;;;;4979999;28;48922;-76
2021/04/14 13:43:02;;;;;;;1.98;0.50;;;;;;;;;;4987757;28;37649;-76
2021/04/14 13:45:37;;;;;;;2.30;0.73;;;;;;;;;;4986645;28;47502;-76
2021/04/14 13:48:03;;;;;;;2.35;0.63;;;;;;;;;;4980759;28;39256;-76
2021/04/14 13:50:29;;;;;;;3.30;1.10;;;;;;;;;;5000888;28;37164;-76
2021/04/14 13:53:00;;;;;;;6.25;0.95;;;;;;;;;;4992319;28;36099;-76
2021/04/14 13:55:27;;;;;;;2.88;0.85;;;;;;;;;;4985876;28;41034;-77
2021/04/14 13:57:59;;;;;;;5.43;1.00;;;;;;;;;;4983739;28;39101;-77
2021/04/14 14:00:28;;;;;;;2.63;1.00;;;;;;;;;;4983385;28;38022;-76
2021/04/14 14:02:56;;;;;;;3.35;0.75;;;;;;;;;;4988793;28;36290;-77
2021/04/14 14:05:35;;;;;;;3.58;1.00;;;;;;;;;;4999628;28;39381;-77
2021/04/14 14:08:08;;;;;;;2.92;1.10;;;;;;;;;;4997099;28;37365;-76
2021/04/14 14:10:38;;;;;;;2.30;0.70;;;;;;;;;;4987002;28;38014;-76
2021/04/14 14:13:08;;;;;;;4.88;0.88;;;;;;;;;;5002235;28;35762;-77
2021/04/14 14:15:36;;;;;;;3.28;1.00;;;;;;;;;;4992161;28;39233;-76
2021/04/14 14:18:03;;;;;;;3.55;0.70;;;;;;;;;;5001157;28;37247;-77
2021/04/14 14:20:32;;;;;;;2.97;0.80;;;;;;;;;;4986601;28;37908;-77
2021/04/14 14:23:06;;;;;;;3.55;0.70;;;;;;;;;;4980052;28;36858;-77
2021/04/14 14:25:32;;;;;;;7.75;0.88;;;;;;;;;;4986141;28;48962;-77
2021/04/14 14:27:59;;;;;;;6.10;0.93;;;;;;;;;;4976704;28;40087;-77
2021/04/14 14:30:27;;;;;;;1.67;0.70;;;;;;;;;;4994197;28;38913;-77
2021/04/14 14:32:54;;;;;;;4.53;1.35;;;;;;;;;;4984541;28;36952;-77
2021/04/14 14:35:21;;;;;;;4.57;0.80;;;;;;;;;;4982737;28;38364;-76
2021/04/14 14:37:52;;;;;;;2.20;0.70;;;;;;;;;;4986469;28;38811;-76
2021/04/14 14:40:22;;;;;;;3.53;0.80;;;;;;;;;;4984028;28;37777;-76
2021/04/14 14:42:51;;;;;;;3.23;1.07;;;;;;;;;;4999459;28;35641;-76
2021/04/14 14:45:31;;;;;;;6.73;0.90;;;;;;;;;;4998151;28;36387;-77
2021/04/14 14:47:59;;;;;;;5.37;0.90;;;;;;;;;;4985765;28;38087;-76
2021/04/14 14:50:30;;;;;;;4.10;0.90;;;;;;;;;;4977080;28;39221;-76